Edith Kirk — 2DST9 — position and weather

sailwx.info

Track history (hours):
 
Tides and Currents Weather Stations Pressure Air Temp Water Temp Dewpoint Dewpoint Depression Visibility Wind Speed Wind Dir Waves Ship Positions

Edith Kirk

Last reported at 2014-Jul-23 21:20 UTC. Time now 2014-Jul-24 02:26 UTC.
Position N 38°60' E 013°35'.

Length 183 m; draft 8.3 m.

Type: Tanker. MMSI: 235081745.

Date/timePositionNaut miles runAvg speedWind from/ knotsBaromVisibWave heightAir tempDewpointWater temp
2014-Jul-23 21:20N 38°60' E 013°35'48610.8
2014-Jul-22 00:08N 36°28' E 023°19'1312.6
2014-Jul-21 23:07N 36°40' E 023°25'812.6
2014-Jul-21 22:30N 36°47' E 023°30'2912.4
2014-Jul-21 20:11N 37°08' E 023°54'1012.7
2014-Jul-21 19:24N 37°15' E 024°03'1612.9
2014-Jul-21 18:08N 37°27' E 024°18'912.5
2014-Jul-21 17:25N 37°33' E 024°25'15312.7
2014-Jul-21 05:19N 39°52' E 025°48'  
2014-Jul-17 01:33N 44°04' E 034°24'1312.8
2014-Jul-17 00:33N 44°10' E 034°40'1312.9
2014-Jul-16 23:33N 44°16' E 034°56'1313.1
2014-Jul-16 22:33N 44°22' E 035°12'1313.3
2014-Jul-16 21:33N 44°28' E 035°28'1313.0
2014-Jul-16 20:33N 44°34' E 035°45'1212.5
2014-Jul-16 19:33N 44°40' E 035°60'1312.6
2014-Jul-16 18:33N 44°45' E 036°16'1411.4
2014-Jul-16 17:22N 44°56' E 036°28'1011.7
2014-Jul-16 16:30N 45°05' E 036°35'  
2014-Jul-14 04:09N 44°15' E 036°27'711.0
2014-Jul-14 03:33N 44°13' E 036°19'10 9.8
2014-Jul-14 02:33N 44°09' E 036°06'20 9.9
2014-Jul-14 00:33N 44°03' E 035°40'1010.0
2014-Jul-13 23:33N 43°58' E 035°27'1010.2
2014-Jul-13 22:33N 43°56' E 035°14'1110.5
2014-Jul-13 21:33N 43°53' E 034°60'  
Track history (hours):
 
Tides and Currents Weather Stations Pressure Air Temp Water Temp Dewpoint Dewpoint Depression Visibility Wind Speed Wind Dir Waves Ship Positions

Edith Kirk

Last reported at 2014-Jul-23 21:20 UTC. Time now 2014-Jul-24 02:26 UTC.
Position N 38°60' E 013°35'.

Length 183 m; draft 8.3 m.

Type: Tanker. MMSI: 235081745.

Date/timePositionNaut miles runAvg speedWind from/ knotsBaromVisibWave heightAir tempDewpointWater temp
2014-Jul-23 21:20N 38°60' E 013°35'48610.8
2014-Jul-22 00:08N 36°28' E 023°19'1312.6
2014-Jul-21 23:07N 36°40' E 023°25'812.6
2014-Jul-21 22:30N 36°47' E 023°30'2912.4
2014-Jul-21 20:11N 37°08' E 023°54'1012.7
2014-Jul-21 19:24N 37°15' E 024°03'1612.9
2014-Jul-21 18:08N 37°27' E 024°18'912.5
2014-Jul-21 17:25N 37°33' E 024°25'15312.7
2014-Jul-21 05:19N 39°52' E 025°48'  
2014-Jul-17 01:33N 44°04' E 034°24'1312.8
2014-Jul-17 00:33N 44°10' E 034°40'1312.9
2014-Jul-16 23:33N 44°16' E 034°56'1313.1
2014-Jul-16 22:33N 44°22' E 035°12'1313.3
2014-Jul-16 21:33N 44°28' E 035°28'1313.0
2014-Jul-16 20:33N 44°34' E 035°45'1212.5
2014-Jul-16 19:33N 44°40' E 035°60'1312.6
2014-Jul-16 18:33N 44°45' E 036°16'1411.4
2014-Jul-16 17:22N 44°56' E 036°28'1011.7
2014-Jul-16 16:30N 45°05' E 036°35'  
2014-Jul-14 04:09N 44°15' E 036°27'711.0
2014-Jul-14 03:33N 44°13' E 036°19'10 9.8
2014-Jul-14 02:33N 44°09' E 036°06'20 9.9
2014-Jul-14 00:33N 44°03' E 035°40'1010.0
2014-Jul-13 23:33N 43°58' E 035°27'1010.2
2014-Jul-13 22:33N 43°56' E 035°14'1110.5
2014-Jul-13 21:33N 43°53' E 034°60'  

Dump ship's entire track history